TimeEDT,TemperatureF,Dew PointF,Humidity,Sea Level PressureIn,VisibilityMPH,Wind Direction,Wind SpeedMPH,Gust SpeedMPH,PrecipitationIn,Events,Conditions,WindDirDegrees,DateUTC
12:52 AM,73.0,66.9,81,29.76,10.0,Variable,5.8,-,N/A,,Scattered Clouds,0,2013-06-26 04:52:00
1:52 AM,73.9,66.9,79,29.76,10.0,WNW,4.6,-,N/A,,Mostly Cloudy,300,2013-06-26 05:52:00
2:52 AM,72.0,66.9,84,29.75,10.0,NNW,3.5,-,N/A,,Clear,340,2013-06-26 06:52:00
3:52 AM,70.0,66.9,90,29.75,10.0,SW,3.5,-,N/A,,Clear,220,2013-06-26 07:52:00
4:52 AM,70.0,66.0,87,29.77,10.0,Calm,Calm,-,N/A,,Clear,0,2013-06-26 08:52:00
5:52 AM,72.0,66.0,81,29.77,10.0,NW,4.6,-,N/A,,Scattered Clouds,320,2013-06-26 09:52:00
6:52 AM,75.0,66.9,76,29.78,10.0,NNW,3.5,-,N/A,,Overcast,330,2013-06-26 10:52:00
7:52 AM,77.0,68.0,74,29.78,10.0,NNW,5.8,-,N/A,,Clear,340,2013-06-26 11:52:00
8:07 AM,78.8,68.0,69,29.79,10.0,Variable,3.5,-,N/A,,Partly Cloudy,0,2013-06-26 12:07:00
8:52 AM,81.0,68.0,65,29.78,10.0,NW,9.2,-,N/A,,Clear,320,2013-06-26 12:52:00
9:52 AM,82.9,66.9,58,29.78,10.0,WNW,10.4,-,N/A,,Partly Cloudy,300,2013-06-26 13:52:00
10:52 AM,84.9,66.9,55,29.78,10.0,West,9.2,-,N/A,,Scattered Clouds,280,2013-06-26 14:52:00
11:52 AM,81.0,66.0,60,29.78,9.0,NNW,10.4,-,N/A,,Mostly Cloudy,330,2013-06-26 15:52:00
12:22 PM,77.0,69.8,78,29.80,1.8,WNW,8.1,-,0.04,Rain,Rain,290,2013-06-26 16:22:00
12:30 PM,75.2,69.8,83,29.80,3.0,NW,3.5,-,0.05,Rain,Light Rain,310,2013-06-26 16:30:00
12:52 PM,80.1,70.0,71,29.79,10.0,Calm,Calm,-,0.05,,Mostly Cloudy,0,2013-06-26 16:52:00
1:52 PM,82.9,68.0,60,29.78,10.0,WNW,8.1,-,N/A,,Overcast,300,2013-06-26 17:52:00
2:52 PM,80.1,66.9,64,29.78,10.0,WNW,6.9,-,N/A,,Overcast,300,2013-06-26 18:52:00
3:52 PM,80.1,66.9,64,29.79,10.0,WNW,8.1,-,N/A,,Clear,300,2013-06-26 19:52:00
4:52 PM,79.0,66.9,66,29.79,10.0,WNW,6.9,-,N/A,,Clear,300,2013-06-26 20:52:00
5:52 PM,75.0,70.0,84,29.80,10.0,Calm,Calm,-,0.05,,Mostly Cloudy,0,2013-06-26 21:52:00
6:17 PM,75.2,69.8,83,29.81,10.0,North,6.9,-,0.00,,Overcast,10,2013-06-26 22:17:00
6:52 PM,73.9,66.9,79,29.81,10.0,NE,3.5,-,0.00,,Mostly Cloudy,40,2013-06-26 22:52:00
7:09 PM,75.2,66.2,73,29.81,10.0,Calm,Calm,-,N/A,,Mostly Cloudy,0,2013-06-26 23:09:00
7:52 PM,73.9,66.9,79,29.82,10.0,Calm,Calm,-,N/A,,Clear,0,2013-06-26 23:52:00
8:52 PM,72.0,68.0,87,29.83,10.0,Calm,Calm,-,N/A,,Scattered Clouds,0,2013-06-27 00:52:00
9:52 PM,71.1,68.0,90,29.86,10.0,Calm,Calm,-,N/A,,Overcast,0,2013-06-27 01:52:00
10:02 PM,71.6,68.0,88,29.87,10.0,Calm,Calm,-,N/A,,Overcast,0,2013-06-27 02:02:00
10:13 PM,71.6,68.0,88,29.87,10.0,Calm,Calm,-,N/A,,Mostly Cloudy,0,2013-06-27 02:13:00
10:20 PM,71.6,68.0,88,29.87,10.0,Calm,Calm,-,N/A,,Mostly Cloudy,0,2013-06-27 02:20:00
10:35 PM,71.6,68.0,88,29.86,10.0,Calm,Calm,-,N/A,,Mostly Cloudy,0,2013-06-27 02:35:00
10:47 PM,71.6,68.0,88,29.86,10.0,Calm,Calm,-,N/A,,Mostly Cloudy,0,2013-06-27 02:47:00
10:52 PM,71.1,68.0,90,29.86,10.0,Calm,Calm,-,N/A,,Mostly Cloudy,0,2013-06-27 02:52:00
11:04 PM,71.6,68.0,88,29.87,10.0,Calm,Calm,-,N/A,,Mostly Cloudy,0,2013-06-27 03:04:00
11:52 PM,71.1,68.0,90,29.86,10.0,Calm,Calm,-,N/A,,Mostly Cloudy,0,2013-06-27 03:52:00